sensor_id;sensor_type;location;lat;lon;timestamp;temperature;humidity
3770;DHT22;1900;48.890;9.190;2023-02-28T00:00:22;5.90;44.00
3770;DHT22;1900;48.890;9.190;2023-02-28T00:02:48;5.90;44.00
3770;DHT22;1900;48.890;9.190;2023-02-28T00:05:16;5.80;43.90
3770;DHT22;1900;48.890;9.190;2023-02-28T00:07:42;5.80;44.00
3770;DHT22;1900;48.890;9.190;2023-02-28T00:10:11;5.80;44.00
3770;DHT22;1900;48.890;9.190;2023-02-28T00:12:37;5.80;44.00
3770;DHT22;1900;48.890;9.190;2023-02-28T00:15:09;5.80;44.60
3770;DHT22;1900;48.890;9.190;2023-02-28T00:17:36;5.80;44.00
3770;DHT22;1900;48.890;9.190;2023-02-28T00:20:02;5.80;44.00
3770;DHT22;1900;48.890;9.190;2023-02-28T00:22:30;5.80;44.00
3770;DHT22;1900;48.890;9.190;2023-02-28T00:24:56;5.80;44.00
3770;DHT22;1900;48.890;9.190;2023-02-28T00:27:22;5.80;44.00
3770;DHT22;1900;48.890;9.190;2023-02-28T00:29:47;5.70;43.80
3770;DHT22;1900;48.890;9.190;2023-02-28T00:32:13;5.70;43.80
3770;DHT22;1900;48.890;9.190;2023-02-28T00:34:39;5.70;43.80
3770;DHT22;1900;48.890;9.190;2023-02-28T00:37:06;5.70;43.80
3770;DHT22;1900;48.890;9.190;2023-02-28T00:39:34;5.70;43.80
3770;DHT22;1900;48.890;9.190;2023-02-28T00:42:00;5.70;43.80
3770;DHT22;1900;48.890;9.190;2023-02-28T00:44:25;5.60;43.70
3770;DHT22;1900;48.890;9.190;2023-02-28T00:46:52;5.60;43.80
3770;DHT22;1900;48.890;9.190;2023-02-28T00:49:23;5.60;43.70
3770;DHT22;1900;48.890;9.190;2023-02-28T00:51:49;5.60;43.70
3770;DHT22;1900;48.890;9.190;2023-02-28T00:54:15;5.50;43.60
3770;DHT22;1900;48.890;9.190;2023-02-28T00:56:41;5.50;43.70
3770;DHT22;1900;48.890;9.190;2023-02-28T00:59:07;5.50;43.70
3770;DHT22;1900;48.890;9.190;2023-02-28T01:01:33;5.50;43.70
3770;DHT22;1900;48.890;9.190;2023-02-28T01:03:59;5.50;43.80
3770;DHT22;1900;48.890;9.190;2023-02-28T01:06:24;5.50;43.70
3770;DHT22;1900;48.890;9.190;2023-02-28T01:08:50;5.40;43.60
3770;DHT22;1900;48.890;9.190;2023-02-28T01:11:17;5.40;43.60
3770;DHT22;1900;48.890;9.190;2023-02-28T01:13:43;5.40;43.60
3770;DHT22;1900;48.890;9.190;2023-02-28T01:16:12;5.40;43.60
3770;DHT22;1900;48.890;9.190;2023-02-28T01:18:38;5.40;43.60
3770;DHT22;1900;48.890;9.190;2023-02-28T01:21:12;5.30;43.60
3770;DHT22;1900;48.890;9.190;2023-02-28T01:23:40;5.30;43.60
3770;DHT22;1900;48.890;9.190;2023-02-28T01:26:11;5.30;43.80
3770;DHT22;1900;48.890;9.190;2023-02-28T01:28:39;5.30;43.80
3770;DHT22;1900;48.890;9.190;2023-02-28T01:31:04;5.30;43.80
3770;DHT22;1900;48.890;9.190;2023-02-28T01:33:31;5.30;43.80
3770;DHT22;1900;48.890;9.190;2023-02-28T01:36:06;5.30;43.80
3770;DHT22;1900;48.890;9.190;2023-02-28T01:38:33;5.30;43.80
3770;DHT22;1900;48.890;9.190;2023-02-28T01:40:58;5.30;43.80
3770;DHT22;1900;48.890;9.190;2023-02-28T01:46:14;5.30;43.80
3770;DHT22;1900;48.890;9.190;2023-02-28T01:48:46;5.30;43.80
3770;DHT22;1900;48.890;9.190;2023-02-28T01:51:18;5.30;43.80
3770;DHT22;1900;48.890;9.190;2023-02-28T01:53:58;5.30;43.90
3770;DHT22;1900;48.890;9.190;2023-02-28T01:56:29;5.30;43.90
3770;DHT22;1900;48.890;9.190;2023-02-28T01:58:56;5.30;43.90
3770;DHT22;1900;48.890;9.190;2023-02-28T02:01:23;5.30;43.90
3770;DHT22;1900;48.890;9.190;2023-02-28T02:03:55;5.30;43.90
3770;DHT22;1900;48.890;9.190;2023-02-28T02:06:27;5.30;44.00
3770;DHT22;1900;48.890;9.190;2023-02-28T02:08:54;5.30;44.00
3770;DHT22;1900;48.890;9.190;2023-02-28T02:11:22;5.30;44.00
3770;DHT22;1900;48.890;9.190;2023-02-28T02:22:18;5.30;44.00
3770;DHT22;1900;48.890;9.190;2023-02-28T02:35:26;5.30;44.00
3770;DHT22;1900;48.890;9.190;2023-02-28T02:38:21;5.30;44.00
3770;DHT22;1900;48.890;9.190;2023-02-28T02:43:44;5.20;43.90
3770;DHT22;1900;48.890;9.190;2023-02-28T02:46:34;5.20;43.90
3770;DHT22;1900;48.890;9.190;2023-02-28T02:49:06;5.20;44.00
3770;DHT22;1900;48.890;9.190;2023-02-28T02:51:35;5.20;44.00
3770;DHT22;1900;48.890;9.190;2023-02-28T02:54:08;5.20;44.00
3770;DHT22;1900;48.890;9.190;2023-02-28T02:56:37;5.20;44.00
3770;DHT22;1900;48.890;9.190;2023-02-28T02:59:07;5.20;44.00
3770;DHT22;1900;48.890;9.190;2023-02-28T03:01:36;5.20;44.00
3770;DHT22;1900;48.890;9.190;2023-02-28T03:04:07;5.20;44.10
3770;DHT22;1900;48.890;9.190;2023-02-28T03:06:33;5.30;44.20
3770;DHT22;1900;48.890;9.190;2023-02-28T03:09:01;5.30;44.20
3770;DHT22;1900;48.890;9.190;2023-02-28T03:11:28;5.30;44.20
3770;DHT22;1900;48.890;9.190;2023-02-28T03:17:16;5.30;44.20
3770;DHT22;1900;48.890;9.190;2023-02-28T03:23:10;5.30;44.20
3770;DHT22;1900;48.890;9.190;2023-02-28T03:26:38;5.30;44.10
3770;DHT22;1900;48.890;9.190;2023-02-28T03:31:48;5.20;44.00
3770;DHT22;1900;48.890;9.190;2023-02-28T03:34:30;5.20;43.90
3770;DHT22;1900;48.890;9.190;2023-02-28T03:37:05;5.10;44.00
3770;DHT22;1900;48.890;9.190;2023-02-28T03:39:58;5.10;44.10
3770;DHT22;1900;48.890;9.190;2023-02-28T03:42:27;5.10;44.10
3770;DHT22;1900;48.890;9.190;2023-02-28T03:52:42;5.20;44.30
3770;DHT22;1900;48.890;9.190;2023-02-28T03:55:13;5.20;44.20
3770;DHT22;1900;48.890;9.190;2023-02-28T04:00:34;5.20;44.30
3770;DHT22;1900;48.890;9.190;2023-02-28T04:03:01;5.20;44.20
3770;DHT22;1900;48.890;9.190;2023-02-28T04:05:27;5.10;44.10
3770;DHT22;1900;48.890;9.190;2023-02-28T04:07:54;5.10;44.00
3770;DHT22;1900;48.890;9.190;2023-02-28T04:10:20;5.10;44.10
3770;DHT22;1900;48.890;9.190;2023-02-28T04:12:45;5.10;44.20
3770;DHT22;1900;48.890;9.190;2023-02-28T04:15:11;5.10;44.30
3770;DHT22;1900;48.890;9.190;2023-02-28T04:17:37;5.10;44.20
3770;DHT22;1900;48.890;9.190;2023-02-28T04:20:04;5.10;44.10
3770;DHT22;1900;48.890;9.190;2023-02-28T04:22:35;5.10;44.00
3770;DHT22;1900;48.890;9.190;2023-02-28T04:25:00;5.10;44.10
3770;DHT22;1900;48.890;9.190;2023-02-28T04:27:26;5.10;44.20
3770;DHT22;1900;48.890;9.190;2023-02-28T04:29:51;5.10;44.20
3770;DHT22;1900;48.890;9.190;2023-02-28T04:32:17;5.10;44.30
3770;DHT22;1900;48.890;9.190;2023-02-28T04:34:43;5.10;44.20
3770;DHT22;1900;48.890;9.190;2023-02-28T04:37:08;5.10;44.20
3770;DHT22;1900;48.890;9.190;2023-02-28T04:39:36;5.10;44.20
3770;DHT22;1900;48.890;9.190;2023-02-28T04:42:02;5.10;44.30
3770;DHT22;1900;48.890;9.190;2023-02-28T04:44:27;5.10;44.30
3770;DHT22;1900;48.890;9.190;2023-02-28T04:46:53;5.10;44.30
3770;DHT22;1900;48.890;9.190;2023-02-28T04:49:19;5.10;44.40
3770;DHT22;1900;48.890;9.190;2023-02-28T04:51:44;5.10;44.40
3770;DHT22;1900;48.890;9.190;2023-02-28T04:54:10;5.20;44.50
3770;DHT22;1900;48.890;9.190;2023-02-28T04:56:36;5.20;45.10
3770;DHT22;1900;48.890;9.190;2023-02-28T04:59:01;5.20;44.40
3770;DHT22;1900;48.890;9.190;2023-02-28T05:01:29;5.20;44.40
3770;DHT22;1900;48.890;9.190;2023-02-28T05:03:57;5.20;44.30
3770;DHT22;1900;48.890;9.190;2023-02-28T05:06:25;5.10;44.20
3770;DHT22;1900;48.890;9.190;2023-02-28T05:08:52;5.10;44.30
3770;DHT22;1900;48.890;9.190;2023-02-28T05:13:46;5.10;44.30
3770;DHT22;1900;48.890;9.190;2023-02-28T05:16:13;5.10;44.30
3770;DHT22;1900;48.890;9.190;2023-02-28T05:18:39;5.10;44.30
3770;DHT22;1900;48.890;9.190;2023-02-28T05:21:05;5.10;44.30
3770;DHT22;1900;48.890;9.190;2023-02-28T05:23:31;5.10;44.30
3770;DHT22;1900;48.890;9.190;2023-02-28T05:25:56;5.10;44.40
3770;DHT22;1900;48.890;9.190;2023-02-28T05:28:22;5.10;44.50
3770;DHT22;1900;48.890;9.190;2023-02-28T05:30:48;5.10;44.50
3770;DHT22;1900;48.890;9.190;2023-02-28T05:33:14;5.20;44.60
3770;DHT22;1900;48.890;9.190;2023-02-28T05:35:40;5.20;44.60
3770;DHT22;1900;48.890;9.190;2023-02-28T05:38:07;5.10;45.10
3770;DHT22;1900;48.890;9.190;2023-02-28T05:40:32;5.20;44.60
3770;DHT22;1900;48.890;9.190;2023-02-28T05:42:58;5.20;44.60
3770;DHT22;1900;48.890;9.190;2023-02-28T05:45:24;5.20;44.60
3770;DHT22;1900;48.890;9.190;2023-02-28T05:47:53;5.20;44.60
3770;DHT22;1900;48.890;9.190;2023-02-28T05:50:19;5.20;44.60
3770;DHT22;1900;48.890;9.190;2023-02-28T05:52:49;5.20;44.60
3770;DHT22;1900;48.890;9.190;2023-02-28T05:55:15;5.20;44.50
3770;DHT22;1900;48.890;9.190;2023-02-28T05:57:41;5.20;44.50
3770;DHT22;1900;48.890;9.190;2023-02-28T06:00:08;5.20;44.60
3770;DHT22;1900;48.890;9.190;2023-02-28T06:02:39;5.20;44.60
3770;DHT22;1900;48.890;9.190;2023-02-28T06:05:09;5.20;44.60
3770;DHT22;1900;48.890;9.190;2023-02-28T06:07:38;5.20;44.60
3770;DHT22;1900;48.890;9.190;2023-02-28T06:10:04;5.20;44.60
3770;DHT22;1900;48.890;9.190;2023-02-28T06:12:29;5.20;44.60
3770;DHT22;1900;48.890;9.190;2023-02-28T06:14:55;5.20;44.60
3770;DHT22;1900;48.890;9.190;2023-02-28T06:17:21;5.30;44.80
3770;DHT22;1900;48.890;9.190;2023-02-28T06:19:46;5.30;44.90
3770;DHT22;1900;48.890;9.190;2023-02-28T06:22:13;5.30;44.90
3770;DHT22;1900;48.890;9.190;2023-02-28T06:24:39;5.30;44.90
3770;DHT22;1900;48.890;9.190;2023-02-28T06:27:04;5.40;45.00
3770;DHT22;1900;48.890;9.190;2023-02-28T06:29:34;5.40;45.00
3770;DHT22;1900;48.890;9.190;2023-02-28T06:32:00;5.40;45.10
3770;DHT22;1900;48.890;9.190;2023-02-28T06:34:26;5.40;45.10
3770;DHT22;1900;48.890;9.190;2023-02-28T06:36:52;5.40;45.00
3770;DHT22;1900;48.890;9.190;2023-02-28T06:39:18;5.50;45.10
3770;DHT22;1900;48.890;9.190;2023-02-28T06:41:44;5.50;45.10
3770;DHT22;1900;48.890;9.190;2023-02-28T06:44:16;5.50;45.10
3770;DHT22;1900;48.890;9.190;2023-02-28T06:46:44;5.50;45.10
3770;DHT22;1900;48.890;9.190;2023-02-28T06:49:11;5.60;45.70
3770;DHT22;1900;48.890;9.190;2023-02-28T06:51:41;5.50;45.20
3770;DHT22;1900;48.890;9.190;2023-02-28T06:54:09;5.60;45.20
3770;DHT22;1900;48.890;9.190;2023-02-28T06:56:35;5.60;45.30
3770;DHT22;1900;48.890;9.190;2023-02-28T06:59:00;5.60;45.30
3770;DHT22;1900;48.890;9.190;2023-02-28T07:01:26;5.60;45.30
3770;DHT22;1900;48.890;9.190;2023-02-28T07:03:54;5.70;45.30
3770;DHT22;1900;48.890;9.190;2023-02-28T07:06:20;5.70;45.30
3770;DHT22;1900;48.890;9.190;2023-02-28T07:08:49;5.70;45.40
3770;DHT22;1900;48.890;9.190;2023-02-28T07:11:14;5.80;45.50
3770;DHT22;1900;48.890;9.190;2023-02-28T07:13:40;5.80;45.50
3770;DHT22;1900;48.890;9.190;2023-02-28T07:16:09;5.80;45.50
3770;DHT22;1900;48.890;9.190;2023-02-28T07:18:35;5.80;45.50
3770;DHT22;1900;48.890;9.190;2023-02-28T07:21:02;5.80;45.40
3770;DHT22;1900;48.890;9.190;2023-02-28T07:23:28;5.90;45.40
3770;DHT22;1900;48.890;9.190;2023-02-28T07:25:54;5.90;45.50
3770;DHT22;1900;48.890;9.190;2023-02-28T07:28:19;5.90;45.60
3770;DHT22;1900;48.890;9.190;2023-02-28T07:30:45;6.00;45.70
3770;DHT22;1900;48.890;9.190;2023-02-28T07:33:11;6.00;45.80
3770;DHT22;1900;48.890;9.190;2023-02-28T07:35:37;6.00;45.80
3770;DHT22;1900;48.890;9.190;2023-02-28T07:38:03;6.00;45.80
3770;DHT22;1900;48.890;9.190;2023-02-28T07:40:29;6.00;45.70
3770;DHT22;1900;48.890;9.190;2023-02-28T07:42:54;6.00;45.60
3770;DHT22;1900;48.890;9.190;2023-02-28T07:45:21;6.10;45.70
3770;DHT22;1900;48.890;9.190;2023-02-28T07:47:46;6.10;45.70
3770;DHT22;1900;48.890;9.190;2023-02-28T07:50:15;6.10;46.40
3770;DHT22;1900;48.890;9.190;2023-02-28T07:52:41;6.10;45.80
3770;DHT22;1900;48.890;9.190;2023-02-28T07:55:08;6.20;45.90
3770;DHT22;1900;48.890;9.190;2023-02-28T07:57:34;6.20;45.80
3770;DHT22;1900;48.890;9.190;2023-02-28T08:00:00;6.20;45.80
3770;DHT22;1900;48.890;9.190;2023-02-28T08:02:37;6.20;45.70
3770;DHT22;1900;48.890;9.190;2023-02-28T08:05:02;6.20;45.60
3770;DHT22;1900;48.890;9.190;2023-02-28T08:07:28;6.20;45.60
3770;DHT22;1900;48.890;9.190;2023-02-28T08:09:54;6.20;45.60
3770;DHT22;1900;48.890;9.190;2023-02-28T08:12:19;6.20;45.70
3770;DHT22;1900;48.890;9.190;2023-02-28T08:14:45;6.20;45.60
3770;DHT22;1900;48.890;9.190;2023-02-28T08:17:11;6.20;45.70
3770;DHT22;1900;48.890;9.190;2023-02-28T08:19:38;6.20;45.70
3770;DHT22;1900;48.890;9.190;2023-02-28T08:22:03;6.20;45.70
3770;DHT22;1900;48.890;9.190;2023-02-28T08:24:29;6.20;45.70
3770;DHT22;1900;48.890;9.190;2023-02-28T08:26:56;6.20;45.70
3770;DHT22;1900;48.890;9.190;2023-02-28T08:29:21;6.20;45.70
3770;DHT22;1900;48.890;9.190;2023-02-28T08:31:47;6.20;45.70
3770;DHT22;1900;48.890;9.190;2023-02-28T08:34:15;6.20;45.70
3770;DHT22;1900;48.890;9.190;2023-02-28T08:36:41;6.20;45.80
3770;DHT22;1900;48.890;9.190;2023-02-28T08:39:08;6.20;45.90
3770;DHT22;1900;48.890;9.190;2023-02-28T08:41:34;6.30;45.90
3770;DHT22;1900;48.890;9.190;2023-02-28T08:44:00;6.30;45.90
3770;DHT22;1900;48.890;9.190;2023-02-28T08:46:27;6.30;46.00
3770;DHT22;1900;48.890;9.190;2023-02-28T08:48:56;6.30;46.10
3770;DHT22;1900;48.890;9.190;2023-02-28T08:51:26;6.40;46.30
3770;DHT22;1900;48.890;9.190;2023-02-28T08:53:58;6.40;46.40
3770;DHT22;1900;48.890;9.190;2023-02-28T08:56:26;6.50;46.60
3770;DHT22;1900;48.890;9.190;2023-02-28T08:58:55;6.50;46.80
3770;DHT22;1900;48.890;9.190;2023-02-28T09:01:24;6.60;46.80
3770;DHT22;1900;48.890;9.190;2023-02-28T09:03:51;6.70;46.90
3770;DHT22;1900;48.890;9.190;2023-02-28T09:06:18;6.70;47.00
3770;DHT22;1900;48.890;9.190;2023-02-28T09:08:44;6.80;47.00
3770;DHT22;1900;48.890;9.190;2023-02-28T09:11:10;6.90;47.10
3770;DHT22;1900;48.890;9.190;2023-02-28T09:13:37;6.90;47.10
3770;DHT22;1900;48.890;9.190;2023-02-28T09:16:04;7.00;47.10
3770;DHT22;1900;48.890;9.190;2023-02-28T09:18:30;7.00;47.20
3770;DHT22;1900;48.890;9.190;2023-02-28T09:20:57;7.10;47.30
3770;DHT22;1900;48.890;9.190;2023-02-28T09:23:23;7.10;47.20
3770;DHT22;1900;48.890;9.190;2023-02-28T09:25:51;7.20;47.30
3770;DHT22;1900;48.890;9.190;2023-02-28T09:28:18;7.20;47.30
3770;DHT22;1900;48.890;9.190;2023-02-28T09:30:46;7.30;47.30
3770;DHT22;1900;48.890;9.190;2023-02-28T09:33:13;7.30;47.30
3770;DHT22;1900;48.890;9.190;2023-02-28T09:35:39;7.30;47.30
3770;DHT22;1900;48.890;9.190;2023-02-28T09:38:05;7.40;47.50
3770;DHT22;1900;48.890;9.190;2023-02-28T09:41:09;7.50;47.60
3770;DHT22;1900;48.890;9.190;2023-02-28T09:43:36;7.50;47.60
3770;DHT22;1900;48.890;9.190;2023-02-28T09:48:54;7.60;47.60
3770;DHT22;1900;48.890;9.190;2023-02-28T09:51:43;7.60;47.50
3770;DHT22;1900;48.890;9.190;2023-02-28T09:54:14;7.60;47.50
3770;DHT22;1900;48.890;9.190;2023-02-28T09:56:49;7.70;47.60
3770;DHT22;1900;48.890;9.190;2023-02-28T10:05:09;7.80;47.70
3770;DHT22;1900;48.890;9.190;2023-02-28T10:10:44;7.90;47.70
3770;DHT22;1900;48.890;9.190;2023-02-28T10:13:21;7.90;47.70
3770;DHT22;1900;48.890;9.190;2023-02-28T10:15:52;7.90;47.60
3770;DHT22;1900;48.890;9.190;2023-02-28T10:18:27;7.90;47.30
3770;DHT22;1900;48.890;9.190;2023-02-28T10:20:56;7.90;47.30
3770;DHT22;1900;48.890;9.190;2023-02-28T10:23:32;7.90;47.30
3770;DHT22;1900;48.890;9.190;2023-02-28T10:26:18;7.90;47.30
3770;DHT22;1900;48.890;9.190;2023-02-28T10:28:44;7.90;47.20
3770;DHT22;1900;48.890;9.190;2023-02-28T10:31:18;7.90;47.20
3770;DHT22;1900;48.890;9.190;2023-02-28T10:33:45;7.90;47.20
3770;DHT22;1900;48.890;9.190;2023-02-28T10:36:16;7.90;47.20
3770;DHT22;1900;48.890;9.190;2023-02-28T10:38:42;7.90;47.20
3770;DHT22;1900;48.890;9.190;2023-02-28T10:41:12;7.90;47.30
3770;DHT22;1900;48.890;9.190;2023-02-28T10:43:39;7.90;47.30
3770;DHT22;1900;48.890;9.190;2023-02-28T10:48:45;7.90;47.40
3770;DHT22;1900;48.890;9.190;2023-02-28T10:51:18;8.00;47.50
3770;DHT22;1900;48.890;9.190;2023-02-28T10:53:54;8.00;47.50
3770;DHT22;1900;48.890;9.190;2023-02-28T10:56:21;8.10;47.60
3770;DHT22;1900;48.890;9.190;2023-02-28T11:01:20;8.10;47.60
3770;DHT22;1900;48.890;9.190;2023-02-28T11:03:47;8.10;47.40
3770;DHT22;1900;48.890;9.190;2023-02-28T11:06:18;8.20;47.50
3770;DHT22;1900;48.890;9.190;2023-02-28T11:08:47;8.20;47.40
3770;DHT22;1900;48.890;9.190;2023-02-28T11:11:13;8.20;47.50
3770;DHT22;1900;48.890;9.190;2023-02-28T11:13:39;8.20;47.50
3770;DHT22;1900;48.890;9.190;2023-02-28T11:16:07;8.20;47.50
3770;DHT22;1900;48.890;9.190;2023-02-28T11:18:55;8.30;47.90
3770;DHT22;1900;48.890;9.190;2023-02-28T11:21:23;8.30;47.90
3770;DHT22;1900;48.890;9.190;2023-02-28T11:23:53;8.40;48.20
3770;DHT22;1900;48.890;9.190;2023-02-28T11:26:45;8.50;48.40
3770;DHT22;1900;48.890;9.190;2023-02-28T11:29:19;8.60;48.80
3770;DHT22;1900;48.890;9.190;2023-02-28T11:34:39;9.00;49.70
3770;DHT22;1900;48.890;9.190;2023-02-28T11:37:13;9.20;49.90
3770;DHT22;1900;48.890;9.190;2023-02-28T11:39:40;9.30;50.10
3770;DHT22;1900;48.890;9.190;2023-02-28T11:47:33;9.80;50.40
3770;DHT22;1900;48.890;9.190;2023-02-28T11:52:55;10.10;49.70
3770;DHT22;1900;48.890;9.190;2023-02-28T11:55:36;10.40;50.20
3770;DHT22;1900;48.890;9.190;2023-02-28T12:09:53;11.40;50.90
3770;DHT22;1900;48.890;9.190;2023-02-28T12:13:26;11.60;51.10
3770;DHT22;1900;48.890;9.190;2023-02-28T12:21:33;12.20;51.40
3770;DHT22;1900;48.890;9.190;2023-02-28T12:24:18;12.40;51.20
3770;DHT22;1900;48.890;9.190;2023-02-28T12:26:49;12.50;51.40
3770;DHT22;1900;48.890;9.190;2023-02-28T12:29:26;12.70;51.20
3770;DHT22;1900;48.890;9.190;2023-02-28T12:32:14;12.80;51.00
3770;DHT22;1900;48.890;9.190;2023-02-28T12:34:49;12.90;51.00
3770;DHT22;1900;48.890;9.190;2023-02-28T12:37:33;13.00;51.00
3770;DHT22;1900;48.890;9.190;2023-02-28T12:40:03;13.10;50.90
3770;DHT22;1900;48.890;9.190;2023-02-28T12:42:46;13.20;51.10
3770;DHT22;1900;48.890;9.190;2023-02-28T12:45:24;13.30;51.20
3770;DHT22;1900;48.890;9.190;2023-02-28T12:47:55;13.50;51.50
3770;DHT22;1900;48.890;9.190;2023-02-28T12:50:23;13.60;51.60
3770;DHT22;1900;48.890;9.190;2023-02-28T12:58:18;13.90;51.20
3770;DHT22;1900;48.890;9.190;2023-02-28T13:06:53;14.30;52.10
3770;DHT22;1900;48.890;9.190;2023-02-28T13:09:18;14.50;51.90
3770;DHT22;1900;48.890;9.190;2023-02-28T13:11:49;14.60;52.30
3770;DHT22;1900;48.890;9.190;2023-02-28T13:17:09;14.90;52.50
3770;DHT22;1900;48.890;9.190;2023-02-28T13:19:38;15.00;52.20
3770;DHT22;1900;48.890;9.190;2023-02-28T13:22:05;15.20;52.50
3770;DHT22;1900;48.890;9.190;2023-02-28T13:24:46;15.20;52.50
3770;DHT22;1900;48.890;9.190;2023-02-28T13:27:38;15.40;52.70
3770;DHT22;1900;48.890;9.190;2023-02-28T13:33:32;15.70;52.80
3770;DHT22;1900;48.890;9.190;2023-02-28T13:38:47;16.00;52.40
3770;DHT22;1900;48.890;9.190;2023-02-28T13:44:17;16.10;52.70
3770;DHT22;1900;48.890;9.190;2023-02-28T13:49:27;16.40;53.70
3770;DHT22;1900;48.890;9.190;2023-02-28T13:52:10;16.50;52.60
3770;DHT22;1900;48.890;9.190;2023-02-28T14:00:54;16.80;52.50
3770;DHT22;1900;48.890;9.190;2023-02-28T14:03:53;16.80;52.90
3770;DHT22;1900;48.890;9.190;2023-02-28T14:06:31;17.00;53.40
3770;DHT22;1900;48.890;9.190;2023-02-28T14:11:41;17.30;53.50
3770;DHT22;1900;48.890;9.190;2023-02-28T14:14:09;17.40;53.10
3770;DHT22;1900;48.890;9.190;2023-02-28T14:16:44;17.40;53.00
3770;DHT22;1900;48.890;9.190;2023-02-28T14:19:31;17.50;52.90
3770;DHT22;1900;48.890;9.190;2023-02-28T14:32:47;17.90;52.80
3770;DHT22;1900;48.890;9.190;2023-02-28T14:38:07;17.90;51.80
3770;DHT22;1900;48.890;9.190;2023-02-28T14:40:38;17.80;51.90
3770;DHT22;1900;48.890;9.190;2023-02-28T14:43:16;17.80;51.70
3770;DHT22;1900;48.890;9.190;2023-02-28T14:45:44;17.70;51.40
3770;DHT22;1900;48.890;9.190;2023-02-28T14:48:15;17.70;51.50
3770;DHT22;1900;48.890;9.190;2023-02-28T14:50:52;17.60;51.40
3770;DHT22;1900;48.890;9.190;2023-02-28T14:53:20;17.60;51.10
3770;DHT22;1900;48.890;9.190;2023-02-28T14:55:48;17.50;51.00
3770;DHT22;1900;48.890;9.190;2023-02-28T15:00:54;17.40;50.40
3770;DHT22;1900;48.890;9.190;2023-02-28T15:03:39;17.30;50.40
3770;DHT22;1900;48.890;9.190;2023-02-28T15:06:12;17.20;50.40
3770;DHT22;1900;48.890;9.190;2023-02-28T15:08:38;17.10;50.60
3770;DHT22;1900;48.890;9.190;2023-02-28T15:11:08;17.10;50.80
3770;DHT22;1900;48.890;9.190;2023-02-28T15:13:39;17.10;50.80
3770;DHT22;1900;48.890;9.190;2023-02-28T15:16:10;17.00;51.00
3770;DHT22;1900;48.890;9.190;2023-02-28T15:18:58;17.00;51.00
3770;DHT22;1900;48.890;9.190;2023-02-28T15:21:28;17.00;51.10
3770;DHT22;1900;48.890;9.190;2023-02-28T15:24:08;17.00;51.40
3770;DHT22;1900;48.890;9.190;2023-02-28T15:26:39;17.10;51.60
3770;DHT22;1900;48.890;9.190;2023-02-28T15:29:07;17.10;51.30
3770;DHT22;1900;48.890;9.190;2023-02-28T15:31:43;17.00;50.50
3770;DHT22;1900;48.890;9.190;2023-02-28T15:36:58;16.90;49.40
3770;DHT22;1900;48.890;9.190;2023-02-28T15:39:26;16.80;49.10
3770;DHT22;1900;48.890;9.190;2023-02-28T15:42:19;16.70;48.90
3770;DHT22;1900;48.890;9.190;2023-02-28T15:44:46;16.50;48.50
3770;DHT22;1900;48.890;9.190;2023-02-28T15:47:18;16.30;48.40
3770;DHT22;1900;48.890;9.190;2023-02-28T15:50:08;16.10;48.30
3770;DHT22;1900;48.890;9.190;2023-02-28T15:52:39;15.90;47.90
3770;DHT22;1900;48.890;9.190;2023-02-28T15:55:18;15.70;47.80
3770;DHT22;1900;48.890;9.190;2023-02-28T15:57:44;15.50;47.50
3770;DHT22;1900;48.890;9.190;2023-02-28T16:00:14;15.30;47.30
3770;DHT22;1900;48.890;9.190;2023-02-28T16:02:40;15.10;47.20
3770;DHT22;1900;48.890;9.190;2023-02-28T16:07:33;14.70;47.00
3770;DHT22;1900;48.890;9.190;2023-02-28T16:10:00;14.50;46.70
3770;DHT22;1900;48.890;9.190;2023-02-28T16:12:28;14.40;46.70
3770;DHT22;1900;48.890;9.190;2023-02-28T16:14:57;14.20;46.70
3770;DHT22;1900;48.890;9.190;2023-02-28T16:17:28;14.10;46.80
3770;DHT22;1900;48.890;9.190;2023-02-28T16:19:54;14.00;46.70
3770;DHT22;1900;48.890;9.190;2023-02-28T16:22:21;13.80;46.50
3770;DHT22;1900;48.890;9.190;2023-02-28T16:24:47;13.70;46.50
3770;DHT22;1900;48.890;9.190;2023-02-28T16:27:35;13.50;46.30
3770;DHT22;1900;48.890;9.190;2023-02-28T16:30:02;13.40;46.20
3770;DHT22;1900;48.890;9.190;2023-02-28T16:32:28;13.30;46.20
3770;DHT22;1900;48.890;9.190;2023-02-28T16:34:54;13.20;46.20
3770;DHT22;1900;48.890;9.190;2023-02-28T16:37:19;13.10;46.20
3770;DHT22;1900;48.890;9.190;2023-02-28T16:39:45;13.00;46.20
3770;DHT22;1900;48.890;9.190;2023-02-28T16:42:26;12.90;46.20
3770;DHT22;1900;48.890;9.190;2023-02-28T16:44:53;12.80;46.10
3770;DHT22;1900;48.890;9.190;2023-02-28T16:47:19;12.70;46.00
3770;DHT22;1900;48.890;9.190;2023-02-28T16:49:44;12.60;45.80
3770;DHT22;1900;48.890;9.190;2023-02-28T16:52:11;12.50;45.70
3770;DHT22;1900;48.890;9.190;2023-02-28T16:54:38;12.40;45.70
3770;DHT22;1900;48.890;9.190;2023-02-28T16:57:05;12.30;45.70
3770;DHT22;1900;48.890;9.190;2023-02-28T16:59:32;12.30;45.70
3770;DHT22;1900;48.890;9.190;2023-02-28T17:01:58;12.20;45.50
3770;DHT22;1900;48.890;9.190;2023-02-28T17:04:25;12.10;45.50
3770;DHT22;1900;48.890;9.190;2023-02-28T17:06:51;12.00;45.40
3770;DHT22;1900;48.890;9.190;2023-02-28T17:09:19;11.90;45.40
3770;DHT22;1900;48.890;9.190;2023-02-28T17:11:46;11.90;45.90
3770;DHT22;1900;48.890;9.190;2023-02-28T17:14:12;11.80;45.30
3770;DHT22;1900;48.890;9.190;2023-02-28T17:16:39;11.70;45.20
3770;DHT22;1900;48.890;9.190;2023-02-28T17:19:09;11.60;45.20
3770;DHT22;1900;48.890;9.190;2023-02-28T17:21:36;11.60;45.30
3770;DHT22;1900;48.890;9.190;2023-02-28T17:24:03;11.50;45.20
3770;DHT22;1900;48.890;9.190;2023-02-28T17:26:29;11.40;45.10
3770;DHT22;1900;48.890;9.190;2023-02-28T17:28:56;11.40;45.20
3770;DHT22;1900;48.890;9.190;2023-02-28T17:31:26;11.30;45.10
3770;DHT22;1900;48.890;9.190;2023-02-28T17:33:52;11.30;45.00
3770;DHT22;1900;48.890;9.190;2023-02-28T17:36:23;11.20;45.00
3770;DHT22;1900;48.890;9.190;2023-02-28T17:38:51;11.10;44.90
3770;DHT22;1900;48.890;9.190;2023-02-28T17:41:16;11.10;45.00
3770;DHT22;1900;48.890;9.190;2023-02-28T17:43:42;11.00;44.90
3770;DHT22;1900;48.890;9.190;2023-02-28T17:46:19;11.00;45.10
3770;DHT22;1900;48.890;9.190;2023-02-28T17:48:50;11.00;45.00
3770;DHT22;1900;48.890;9.190;2023-02-28T17:51:18;11.00;45.00
3770;DHT22;1900;48.890;9.190;2023-02-28T17:53:44;10.90;44.90
3770;DHT22;1900;48.890;9.190;2023-02-28T17:56:23;10.90;45.00
3770;DHT22;1900;48.890;9.190;2023-02-28T17:58:51;10.80;44.90
3770;DHT22;1900;48.890;9.190;2023-02-28T18:01:18;10.80;44.90
3770;DHT22;1900;48.890;9.190;2023-02-28T18:03:46;10.70;44.80
3770;DHT22;1900;48.890;9.190;2023-02-28T18:06:18;10.70;44.80
3770;DHT22;1900;48.890;9.190;2023-02-28T18:08:45;10.60;44.80
3770;DHT22;1900;48.890;9.190;2023-02-28T18:11:11;10.60;44.80
3770;DHT22;1900;48.890;9.190;2023-02-28T18:13:47;10.50;44.70
3770;DHT22;1900;48.890;9.190;2023-02-28T18:16:13;10.50;44.70
3770;DHT22;1900;48.890;9.190;2023-02-28T18:18:40;10.50;44.70
3770;DHT22;1900;48.890;9.190;2023-02-28T18:21:06;10.40;44.60
3770;DHT22;1900;48.890;9.190;2023-02-28T18:23:33;10.40;44.60
3770;DHT22;1900;48.890;9.190;2023-02-28T18:25:59;10.40;44.60
3770;DHT22;1900;48.890;9.190;2023-02-28T18:28:25;10.40;44.60
3770;DHT22;1900;48.890;9.190;2023-02-28T18:30:51;10.30;44.50
3770;DHT22;1900;48.890;9.190;2023-02-28T18:33:16;10.30;44.50
3770;DHT22;1900;48.890;9.190;2023-02-28T18:35:42;10.20;44.40
3770;DHT22;1900;48.890;9.190;2023-02-28T18:38:14;10.20;44.40
3770;DHT22;1900;48.890;9.190;2023-02-28T18:40:42;10.10;44.30
3770;DHT22;1900;48.890;9.190;2023-02-28T18:43:08;10.10;44.40
3770;DHT22;1900;48.890;9.190;2023-02-28T18:45:38;10.10;44.40
3770;DHT22;1900;48.890;9.190;2023-02-28T18:48:04;10.10;44.40
3770;DHT22;1900;48.890;9.190;2023-02-28T18:50:30;10.00;44.20
3770;DHT22;1900;48.890;9.190;2023-02-28T18:52:56;10.00;44.20
3770;DHT22;1900;48.890;9.190;2023-02-28T18:55:23;10.00;44.20